sensor_id;sensor_type;location;lat;lon;timestamp;temperature;humidity
27870;DHT22;15225;50.730;4.244;2024-02-21T18:32:16;9.20;99.90
27870;DHT22;15225;50.730;4.244;2024-02-21T18:34:43;9.20;99.90
27870;DHT22;15225;50.730;4.244;2024-02-21T18:37:09;9.50;99.90
27870;DHT22;15225;50.730;4.244;2024-02-21T18:39:35;10.00;99.90
27870;DHT22;15225;50.730;4.244;2024-02-21T18:42:01;10.40;96.20
27870;DHT22;15225;50.730;4.244;2024-02-21T18:44:28;10.90;86.00
27870;DHT22;15225;50.730;4.244;2024-02-21T18:46:53;11.30;58.50
27870;DHT22;15225;50.730;4.244;2024-02-21T18:49:19;11.30;48.80
27870;DHT22;15225;50.730;4.244;2024-02-21T18:51:46;11.10;55.50
27870;DHT22;15225;50.730;4.244;2024-02-21T18:54:11;10.90;61.00
27870;DHT22;15225;50.730;4.244;2024-02-21T18:56:37;10.80;67.10
27870;DHT22;15225;50.730;4.244;2024-02-21T18:59:03;10.80;71.40
27870;DHT22;15225;50.730;4.244;2024-02-21T19:01:32;10.70;76.40
27870;DHT22;15225;50.730;4.244;2024-02-21T19:03:58;10.70;75.60
27870;DHT22;15225;50.730;4.244;2024-02-21T19:06:23;10.90;70.10
27870;DHT22;15225;50.730;4.244;2024-02-21T19:08:49;10.80;66.80
27870;DHT22;15225;50.730;4.244;2024-02-21T19:11:16;10.80;70.80
27870;DHT22;15225;50.730;4.244;2024-02-21T19:13:41;10.70;74.10
27870;DHT22;15225;50.730;4.244;2024-02-21T19:16:07;10.80;70.60
27870;DHT22;15225;50.730;4.244;2024-02-21T19:18:33;11.00;65.90
27870;DHT22;15225;50.730;4.244;2024-02-21T19:20:59;11.00;61.70
27870;DHT22;15225;50.730;4.244;2024-02-21T19:23:25;11.10;59.30
27870;DHT22;15225;50.730;4.244;2024-02-21T19:25:51;11.20;58.20
27870;DHT22;15225;50.730;4.244;2024-02-21T19:28:16;11.20;53.00
27870;DHT22;15225;50.730;4.244;2024-02-21T19:30:45;11.10;58.50
27870;DHT22;15225;50.730;4.244;2024-02-21T19:33:11;11.00;65.30
27870;DHT22;15225;50.730;4.244;2024-02-21T19:35:36;11.00;60.90
27870;DHT22;15225;50.730;4.244;2024-02-21T19:38:03;10.90;67.30
27870;DHT22;15225;50.730;4.244;2024-02-21T19:40:29;10.90;68.30
27870;DHT22;15225;50.730;4.244;2024-02-21T19:42:59;11.00;68.30
27870;DHT22;15225;50.730;4.244;2024-02-21T19:45:26;11.10;60.20
27870;DHT22;15225;50.730;4.244;2024-02-21T19:47:52;11.20;57.20
27870;DHT22;15225;50.730;4.244;2024-02-21T19:50:18;11.10;57.00
27870;DHT22;15225;50.730;4.244;2024-02-21T19:52:47;11.10;59.10
27870;DHT22;15225;50.730;4.244;2024-02-21T19:55:16;11.10;60.90
27870;DHT22;15225;50.730;4.244;2024-02-21T19:57:45;11.00;65.90
27870;DHT22;15225;50.730;4.244;2024-02-21T20:00:14;11.00;68.40
27870;DHT22;15225;50.730;4.244;2024-02-21T20:02:40;11.00;66.90
27870;DHT22;15225;50.730;4.244;2024-02-21T20:05:08;11.00;68.60
27870;DHT22;15225;50.730;4.244;2024-02-21T20:07:34;10.90;71.50
27870;DHT22;15225;50.730;4.244;2024-02-21T20:10:00;11.10;65.90
27870;DHT22;15225;50.730;4.244;2024-02-21T20:12:25;11.20;60.20
27870;DHT22;15225;50.730;4.244;2024-02-21T20:14:52;11.10;60.40
27870;DHT22;15225;50.730;4.244;2024-02-21T20:17:19;11.00;66.30
27870;DHT22;15225;50.730;4.244;2024-02-21T20:19:44;10.90;69.80
27870;DHT22;15225;50.730;4.244;2024-02-21T20:22:11;10.90;77.70
27870;DHT22;15225;50.730;4.244;2024-02-21T20:24:36;10.90;77.20
27870;DHT22;15225;50.730;4.244;2024-02-21T20:27:02;10.90;76.50
27870;DHT22;15225;50.730;4.244;2024-02-21T20:29:28;10.90;80.40
27870;DHT22;15225;50.730;4.244;2024-02-21T20:31:54;11.10;74.50
27870;DHT22;15225;50.730;4.244;2024-02-21T20:34:22;11.30;64.50
27870;DHT22;15225;50.730;4.244;2024-02-21T20:36:49;11.40;58.00
27870;DHT22;15225;50.730;4.244;2024-02-21T20:39:17;11.30;57.20
27870;DHT22;15225;50.730;4.244;2024-02-21T20:41:44;11.30;57.60
27870;DHT22;15225;50.730;4.244;2024-02-21T20:44:10;11.20;63.50
27870;DHT22;15225;50.730;4.244;2024-02-21T20:46:35;11.30;61.90
27870;DHT22;15225;50.730;4.244;2024-02-21T20:49:01;11.30;58.80
27870;DHT22;15225;50.730;4.244;2024-02-21T20:51:27;11.20;62.00
27870;DHT22;15225;50.730;4.244;2024-02-21T20:53:53;11.30;63.90
27870;DHT22;15225;50.730;4.244;2024-02-21T20:56:19;11.30;61.70
27870;DHT22;15225;50.730;4.244;2024-02-21T20:58:45;11.20;63.80
27870;DHT22;15225;50.730;4.244;2024-02-21T21:01:11;11.20;67.50
27870;DHT22;15225;50.730;4.244;2024-02-21T21:03:37;11.20;69.30
27870;DHT22;15225;50.730;4.244;2024-02-21T21:06:04;11.30;65.20
27870;DHT22;15225;50.730;4.244;2024-02-21T21:08:30;11.40;61.00
27870;DHT22;15225;50.730;4.244;2024-02-21T21:10:56;11.50;53.70
27870;DHT22;15225;50.730;4.244;2024-02-21T21:13:22;11.60;52.00
27870;DHT22;15225;50.730;4.244;2024-02-21T21:15:47;11.50;54.00
27870;DHT22;15225;50.730;4.244;2024-02-21T21:18:14;11.40;58.60
27870;DHT22;15225;50.730;4.244;2024-02-21T21:20:40;11.40;61.90
27870;DHT22;15225;50.730;4.244;2024-02-21T21:23:07;11.40;67.00
27870;DHT22;15225;50.730;4.244;2024-02-21T21:25:34;11.60;55.20
27870;DHT22;15225;50.730;4.244;2024-02-21T21:28:05;11.50;57.90
